메인 페이지
METAR-TAF:

METAR-TAF

공항 :

루안다 콰트루 드 페베레이루 공항

루안다, 앙골라

위도: 08-51S, 경도: 013-14E, 고도: 74m

현재 날씨관측

예보는 27분 전, 01:00시(UTC)에 발표되었습니다.
남남동6kt
온도 21°C
습도 88%
기압 1014 hPa
시정: 8000m

METAR: FNLU 230100Z 15006KT 8000 NSC 21/19 Q1014

시각: 02:27 (01:27 UTC)

예보

예보는 2 시간 42분 전, 22:45시(UTC)에 발표되었습니다.
예보 대상 시간: 23일 00시부터 24일 06시까지 (UTC)
5kt
시정: 8000m
전환 중
23일 10시부터 23일 12시까지 (UTC)
서북서8kt
고도 2300ft 상공 구름 보통
고도 3000ft 상공 구름 많음
일시적
23일 14시부터 23일 18시까지 (UTC)
10kt
시정 10km 이상
1500m 미만 상공 구름 및 적란운 없음
전환 중
23일 20시부터 23일 22시까지 (UTC)
남남서8kt
시정: 9000m
고도 2000ft 상공 구름 보통

TAF: FNLU 222245Z 2300/2406 18005KT 8000 NSC BECMG 2310/2312 30008KT SCT023 BKN030 TEMPO 2314/2318 26010KT CAVOK BECMG 2320/2322 20008KT 9000 SCT020

4,000개 이상의 공항 관측 자료 및 예보 (METAR 및 TAF 보고).

지도상에서 검색 가능한 기상관측소가 노란 점과 빨간 점으로 표시되어 있습니다.

기상관측소 명을 보려면 표시 위로 마우스를 이동하세요.

날씨 관측과 예보를 보려면 클릭하세요.

지도 변경 : 확대하려면 엑스 표시가 있는 녹색 버튼, 축소하려면 빼기 표시가 있는 녹색 버튼, 다음 페이지의 지도를 보려면 녹색 화살표를 클릭하세요.


METAR-TAF: